Time;durP1;ratioP1;P1;durP2;ratioP2;P2;SDS_P1;SDS_P2;PMS_P1;PMS_P2;Temp;Humidity;BMP_temperature;BMP_pressure;BME280_temperature;BME280_humidity;BME280_pressure;Samples;Min_cycle;Max_cycle;Signal;HPM_P1;HPM_P2
2022/02/21 00:02:23;;;;;;;5.40;1.35;;;;;;;;;;6182589;23;20507;-78
2022/02/21 00:04:50;;;;;;;3.40;1.30;;;;;;;;;;6181233;23;20191;-84
2022/02/21 00:07:17;;;;;;;3.25;1.55;;;;;;;;;;6181764;23;20179;-80
2022/02/21 00:09:44;;;;;;;1.98;1.65;;;;;;;;;;6182143;23;20171;-81
2022/02/21 00:12:11;;;;;;;4.57;1.83;;;;;;;;;;6183198;23;20516;-78
2022/02/21 00:14:39;;;;;;;2.75;1.20;;;;;;;;;;6181988;23;20744;-81
2022/02/21 00:17:07;;;;;;;5.07;1.27;;;;;;;;;;6182981;23;20258;-78
2022/02/21 00:19:34;;;;;;;4.18;1.70;;;;;;;;;;6180184;23;20179;-81
2022/02/21 00:22:01;;;;;;;3.75;1.48;;;;;;;;;;6181531;23;20178;-78
2022/02/21 00:24:29;;;;;;;5.65;1.52;;;;;;;;;;6181418;23;20303;-79
2022/02/21 00:26:56;;;;;;;5.25;1.55;;;;;;;;;;6179578;23;20178;-81
2022/02/21 00:29:23;;;;;;;8.75;1.38;;;;;;;;;;6180314;23;20167;-79
2022/02/21 00:31:50;;;;;;;4.68;1.90;;;;;;;;;;6180050;23;20179;-83
2022/02/21 00:34:19;;;;;;;7.03;1.90;;;;;;;;;;6180077;23;20209;-78
2022/02/21 00:36:46;;;;;;;6.72;1.92;;;;;;;;;;6181651;23;20178;-81
2022/02/21 00:39:13;;;;;;;13.98;3.03;;;;;;;;;;6179448;23;20178;-78
2022/02/21 00:41:40;;;;;;;7.38;1.98;;;;;;;;;;6181251;23;20168;-79
2022/02/21 00:44:07;;;;;;;4.70;1.90;;;;;;;;;;6180224;23;20183;-79
2022/02/21 00:46:34;;;;;;;4.25;1.65;;;;;;;;;;6181803;23;20175;-80
2022/02/21 00:49:03;;;;;;;10.23;2.00;;;;;;;;;;6181103;23;20495;-79
2022/02/21 00:51:32;;;;;;;13.02;2.50;;;;;;;;;;6181632;23;20174;-80
2022/02/21 00:53:59;;;;;;;10.98;2.30;;;;;;;;;;6181890;23;20207;-79
2022/02/21 00:56:26;;;;;;;6.55;2.35;;;;;;;;;;6180764;23;20662;-80
2022/02/21 00:58:53;;;;;;;9.55;2.70;;;;;;;;;;6180045;23;20172;-79
2022/02/21 01:01:21;;;;;;;8.95;3.30;;;;;;;;;;6181117;23;20180;-81
2022/02/21 01:03:48;;;;;;;7.93;2.83;;;;;;;;;;6180813;23;20478;-79
2022/02/21 01:06:17;;;;;;;5.75;3.05;;;;;;;;;;6181097;23;20198;-81
2022/02/21 01:08:45;;;;;;;8.02;3.40;;;;;;;;;;6181570;23;20625;-79
2022/02/21 01:11:12;;;;;;;5.72;3.00;;;;;;;;;;6182299;23;20466;-77
2022/02/21 01:13:40;;;;;;;10.50;2.60;;;;;;;;;;6174248;23;20192;-81
2022/02/21 01:16:07;;;;;;;8.68;2.40;;;;;;;;;;6175756;23;20206;-80
2022/02/21 01:18:34;;;;;;;6.50;2.95;;;;;;;;;;6179390;23;20609;-79
2022/02/21 01:21:02;;;;;;;9.43;2.13;;;;;;;;;;6177973;23;20179;-81
2022/02/21 01:23:29;;;;;;;2.72;1.17;;;;;;;;;;6179564;23;20175;-79
2022/02/21 01:25:58;;;;;;;3.80;1.60;;;;;;;;;;6180883;23;20199;-84
2022/02/21 01:28:25;;;;;;;11.68;5.50;;;;;;;;;;6180962;23;20179;-78
2022/02/21 01:30:52;;;;;;;3.75;1.80;;;;;;;;;;6179964;23;20208;-81
2022/02/21 01:33:20;;;;;;;6.30;3.30;;;;;;;;;;6181113;23;20493;-81
2022/02/21 01:35:47;;;;;;;6.35;2.75;;;;;;;;;;6180267;23;20203;-79
2022/02/21 01:38:14;;;;;;;4.05;2.30;;;;;;;;;;6180206;23;20167;-81
2022/02/21 01:40:41;;;;;;;7.13;3.00;;;;;;;;;;6180416;23;20205;-79
2022/02/21 01:43:10;;;;;;;18.40;4.13;;;;;;;;;;6180824;23;20168;-78
2022/02/21 01:45:37;;;;;;;13.38;3.67;;;;;;;;;;6181286;23;20198;-81
2022/02/21 01:48:04;;;;;;;8.60;3.20;;;;;;;;;;6182855;23;20168;-76
2022/02/21 01:50:31;;;;;;;10.70;4.43;;;;;;;;;;6182540;23;20487;-80
2022/02/21 01:52:59;;;;;;;14.52;3.15;;;;;;;;;;6179138;23;20182;-80
2022/02/21 01:55:26;;;;;;;11.32;2.78;;;;;;;;;;6178152;23;20211;-79
2022/02/21 01:57:53;;;;;;;14.15;4.93;;;;;;;;;;6178978;23;20278;-80
2022/02/21 02:00:22;;;;;;;5.35;1.90;;;;;;;;;;6181190;23;20186;-80
2022/02/21 02:02:49;;;;;;;10.27;2.55;;;;;;;;;;6180314;23;20168;-79
2022/02/21 02:05:17;;;;;;;7.63;2.10;;;;;;;;;;6180032;23;20274;-80
2022/02/21 02:07:44;;;;;;;13.07;2.78;;;;;;;;;;6180513;23;20167;-80
2022/02/21 02:10:13;;;;;;;12.13;3.25;;;;;;;;;;6183102;23;20550;-78
2022/02/21 02:12:40;;;;;;;13.95;2.75;;;;;;;;;;6181932;23;20254;-78
2022/02/21 02:15:11;;;;;;;10.45;2.92;;;;;;;;;;6178301;23;20253;-81
2022/02/21 02:17:40;;;;;;;4.20;2.25;;;;;;;;;;6177926;23;20179;-80
2022/02/21 02:20:07;;;;;;;6.18;3.00;;;;;;;;;;6179413;23;20171;-78
2022/02/21 02:22:37;;;;;;;9.57;2.10;;;;;;;;;;6181226;23;20167;-81
2022/02/21 02:25:05;;;;;;;5.45;1.65;;;;;;;;;;6179931;23;20195;-80
2022/02/21 02:27:32;;;;;;;5.20;1.92;;;;;;;;;;6178852;23;20171;-79
2022/02/21 02:30:01;;;;;;;12.07;2.03;;;;;;;;;;6179953;23;20173;-80
2022/02/21 02:32:29;;;;;;;4.85;1.88;;;;;;;;;;6180535;23;20633;-80
2022/02/21 02:34:56;;;;;;;6.82;3.00;;;;;;;;;;6178293;23;20979;-82
2022/02/21 02:37:24;;;;;;;9.55;2.80;;;;;;;;;;6179123;23;20177;-81
2022/02/21 02:39:53;;;;;;;9.48;2.60;;;;;;;;;;6177591;23;20168;-79
2022/02/21 02:42:21;;;;;;;12.88;2.65;;;;;;;;;;6178855;23;20195;-79
2022/02/21 02:44:48;;;;;;;13.77;2.55;;;;;;;;;;6179139;23;20189;-80
2022/02/21 02:47:15;;;;;;;12.52;2.53;;;;;;;;;;6180334;23;20167;-80
2022/02/21 02:49:43;;;;;;;4.88;1.98;;;;;;;;;;6179348;23;20181;-81
2022/02/21 02:52:11;;;;;;;8.27;2.08;;;;;;;;;;6179667;23;20179;-82
2022/02/21 02:54:38;;;;;;;2.97;1.50;;;;;;;;;;6176220;23;20520;-80
2022/02/21 02:57:06;;;;;;;4.97;1.90;;;;;;;;;;6178985;23;20179;-78
2022/02/21 02:59:34;;;;;;;3.42;1.40;;;;;;;;;;6179426;23;20174;-83
2022/02/21 03:02:01;;;;;;;3.22;1.60;;;;;;;;;;6180271;23;20167;-79
2022/02/21 03:04:28;;;;;;;5.28;1.75;;;;;;;;;;6178292;23;20306;-80
2022/02/21 03:06:58;;;;;;;3.20;1.63;;;;;;;;;;6181136;23;20179;-82
2022/02/21 03:09:25;;;;;;;7.03;2.17;;;;;;;;;;6178863;23;20228;-82
2022/02/21 03:11:53;;;;;;;4.38;1.52;;;;;;;;;;6177979;23;20184;-80
2022/02/21 03:14:21;;;;;;;5.53;2.13;;;;;;;;;;6179596;23;20213;-78
2022/02/21 03:16:48;;;;;;;5.97;1.98;;;;;;;;;;6177708;23;20180;-82
2022/02/21 03:19:15;;;;;;;5.20;2.00;;;;;;;;;;6180251;23;20174;-80
2022/02/21 03:21:43;;;;;;;6.32;2.42;;;;;;;;;;6180666;23;20168;-83
2022/02/21 03:24:10;;;;;;;8.95;2.92;;;;;;;;;;6181065;23;20278;-78
2022/02/21 03:26:37;;;;;;;5.15;2.10;;;;;;;;;;6178666;23;20174;-81
2022/02/21 03:29:04;;;;;;;10.35;3.03;;;;;;;;;;6178308;23;20172;-81
2022/02/21 03:31:33;;;;;;;12.25;2.55;;;;;;;;;;6178172;23;20179;-82
2022/02/21 03:34:00;;;;;;;12.75;2.55;;;;;;;;;;6178969;23;20167;-80
2022/02/21 03:36:27;;;;;;;6.10;2.38;;;;;;;;;;6180861;23;20221;-82
2022/02/21 03:38:54;;;;;;;9.40;3.05;;;;;;;;;;6182221;23;20167;-81
2022/02/21 03:41:21;;;;;;;10.00;3.00;;;;;;;;;;6182143;23;20174;-80
2022/02/21 03:43:48;;;;;;;8.32;2.55;;;;;;;;;;6180173;23;20488;-78
2022/02/21 03:46:15;;;;;;;11.93;2.42;;;;;;;;;;6180030;23;20697;-79
2022/02/21 03:48:44;;;;;;;12.35;3.17;;;;;;;;;;6178964;23;20564;-80
2022/02/21 03:51:11;;;;;;;13.90;2.85;;;;;;;;;;6181731;23;20168;-82
2022/02/21 03:53:38;;;;;;;12.23;2.40;;;;;;;;;;6182817;23;20493;-81
2022/02/21 03:56:05;;;;;;;11.45;2.72;;;;;;;;;;6182852;23;20199;-77
2022/02/21 03:58:33;;;;;;;13.85;3.08;;;;;;;;;;6184068;23;20468;-81
2022/02/21 04:01:00;;;;;;;12.30;2.33;;;;;;;;;;6185383;23;20172;-84
2022/02/21 04:03:27;;;;;;;7.50;2.10;;;;;;;;;;6183769;23;20206;-82
2022/02/21 04:05:55;;;;;;;9.35;2.75;;;;;;;;;;6181411;23;20202;-79
2022/02/21 04:08:22;;;;;;;15.45;2.88;;;;;;;;;;6180688;23;20182;-79
2022/02/21 04:10:50;;;;;;;9.93;2.35;;;;;;;;;;6181150;23;20178;-81
2022/02/21 04:13:17;;;;;;;12.07;2.40;;;;;;;;;;6182119;23;20171;-81
2022/02/21 04:15:44;;;;;;;14.80;2.85;;;;;;;;;;6182204;23;20297;-81
2022/02/21 04:18:11;;;;;;;9.38;2.13;;;;;;;;;;6181483;23;20168;-82
2022/02/21 04:20:38;;;;;;;9.23;2.50;;;;;;;;;;6182006;23;20175;-82
2022/02/21 04:23:07;;;;;;;4.13;1.92;;;;;;;;;;6183443;23;20178;-83
2022/02/21 04:25:34;;;;;;;6.57;1.75;;;;;;;;;;6183094;23;20199;-78
2022/02/21 04:28:01;;;;;;;6.25;2.35;;;;;;;;;;6181001;23;20175;-79
2022/02/21 04:30:29;;;;;;;7.72;1.80;;;;;;;;;;6178598;23;20179;-83
2022/02/21 04:32:57;;;;;;;8.27;2.10;;;;;;;;;;6179231;23;20262;-78
2022/02/21 04:35:25;;;;;;;5.07;2.28;;;;;;;;;;6180257;23;20391;-80
2022/02/21 04:37:53;;;;;;;5.05;2.15;;;;;;;;;;6180601;23;20538;-84
2022/02/21 04:40:22;;;;;;;3.47;1.90;;;;;;;;;;6178916;23;20231;-81
2022/02/21 04:42:50;;;;;;;2.40;1.98;;;;;;;;;;6182718;23;20168;-82
2022/02/21 04:45:18;;;;;;;6.88;1.60;;;;;;;;;;6179943;23;20195;-82
2022/02/21 04:47:45;;;;;;;7.95;2.50;;;;;;;;;;6180705;23;20258;-80
2022/02/21 04:50:12;;;;;;;12.38;2.25;;;;;;;;;;6180337;23;20475;-77
2022/02/21 04:52:40;;;;;;;9.65;2.08;;;;;;;;;;6180120;23;20167;-82
2022/02/21 04:55:09;;;;;;;9.15;2.47;;;;;;;;;;6180433;23;20250;-79
2022/02/21 04:57:37;;;;;;;9.27;2.15;;;;;;;;;;6180618;23;20168;-81
2022/02/21 05:00:06;;;;;;;21.33;3.47;;;;;;;;;;6182222;23;20168;-81
2022/02/21 05:02:33;;;;;;;13.18;4.05;;;;;;;;;;6181181;23;20172;-80
2022/02/21 05:05:00;;;;;;;11.50;2.55;;;;;;;;;;6179869;23;20195;-81
2022/02/21 05:07:27;;;;;;;18.13;3.20;;;;;;;;;;6180720;23;20172;-80
2022/02/21 05:09:54;;;;;;;18.88;3.42;;;;;;;;;;6181200;23;20206;-81
2022/02/21 05:12:22;;;;;;;11.93;3.15;;;;;;;;;;6178038;23;20175;-79
2022/02/21 05:14:50;;;;;;;10.23;2.70;;;;;;;;;;6181283;23;20509;-79
2022/02/21 05:17:17;;;;;;;15.57;4.47;;;;;;;;;;6180663;23;20167;-81
2022/02/21 05:19:44;;;;;;;16.15;4.03;;;;;;;;;;6178077;23;20178;-83
2022/02/21 05:22:11;;;;;;;12.95;3.63;;;;;;;;;;6179144;23;20566;-81
2022/02/21 05:24:38;;;;;;;27.17;4.88;;;;;;;;;;6180013;23;20522;-79
2022/02/21 05:27:06;;;;;;;12.20;2.80;;;;;;;;;;6180108;23;20489;-78
2022/02/21 05:29:33;;;;;;;9.80;2.95;;;;;;;;;;6179926;23;20168;-80
2022/02/21 05:32:01;;;;;;;9.18;2.90;;;;;;;;;;6179206;23;20482;-83
2022/02/21 05:34:28;;;;;;;7.63;2.58;;;;;;;;;;6180599;23;20290;-81
2022/02/21 05:36:55;;;;;;;9.40;3.13;;;;;;;;;;6178137;23;20203;-81
2022/02/21 05:39:23;;;;;;;16.65;3.05;;;;;;;;;;6179690;23;20168;-82
2022/02/21 05:41:50;;;;;;;10.85;3.05;;;;;;;;;;6179955;23;20579;-82
2022/02/21 05:44:17;;;;;;;7.47;3.03;;;;;;;;;;6179999;23;20187;-79
2022/02/21 05:46:45;;;;;;;8.55;2.10;;;;;;;;;;6179451;23;20178;-81
2022/02/21 05:49:13;;;;;;;10.85;2.33;;;;;;;;;;6180259;23;20167;-80
2022/02/21 05:51:40;;;;;;;9.38;3.33;;;;;;;;;;6182342;23;20174;-79
2022/02/21 05:54:08;;;;;;;14.20;2.42;;;;;;;;;;6182403;23;20175;-79
2022/02/21 05:56:35;;;;;;;8.07;2.58;;;;;;;;;;6180701;23;20199;-83
2022/02/21 05:59:03;;;;;;;16.40;2.92;;;;;;;;;;6180297;23;20171;-80
2022/02/21 06:01:30;;;;;;;11.13;2.88;;;;;;;;;;6177158;23;20484;-79
2022/02/21 06:03:57;;;;;;;10.40;2.97;;;;;;;;;;6181137;23;20174;-82
2022/02/21 06:06:26;;;;;;;12.60;3.35;;;;;;;;;;6180490;23;20644;-80
2022/02/21 06:08:53;;;;;;;14.13;3.15;;;;;;;;;;6177777;23;20171;-79
2022/02/21 06:11:20;;;;;;;14.38;3.35;;;;;;;;;;6179039;23;20636;-80
2022/02/21 06:13:47;;;;;;;12.90;3.20;;;;;;;;;;6181837;23;20178;-82
2022/02/21 06:16:14;;;;;;;14.18;2.80;;;;;;;;;;6180326;23;20207;-78
2022/02/21 06:18:41;;;;;;;6.07;2.65;;;;;;;;;;6179299;23;20168;-84
2022/02/21 06:21:08;;;;;;;9.18;2.53;;;;;;;;;;6178984;23;20657;-79
2022/02/21 06:23:37;;;;;;;10.50;2.53;;;;;;;;;;6181220;23;20171;-80
2022/02/21 06:26:04;;;;;;;9.40;2.40;;;;;;;;;;6179736;23;20203;-80
2022/02/21 06:28:31;;;;;;;8.55;2.80;;;;;;;;;;6181894;23;20490;-79
2022/02/21 06:30:58;;;;;;;11.18;2.80;;;;;;;;;;6182041;23;20175;-78
2022/02/21 06:33:26;;;;;;;13.43;2.92;;;;;;;;;;6183566;23;20172;-80
2022/02/21 06:35:53;;;;;;;14.75;3.40;;;;;;;;;;6181348;23;20289;-82
2022/02/21 06:38:20;;;;;;;8.18;2.40;;;;;;;;;;6179573;23;20178;-83
2022/02/21 06:40:49;;;;;;;12.30;3.28;;;;;;;;;;6180415;23;20175;-79
2022/02/21 06:43:16;;;;;;;9.00;3.05;;;;;;;;;;6179248;23;20625;-79
2022/02/21 06:45:45;;;;;;;10.30;2.80;;;;;;;;;;6178886;23;20218;-80
2022/02/21 06:48:13;;;;;;;9.88;3.95;;;;;;;;;;6182473;23;20179;-82
2022/02/21 06:50:40;;;;;;;7.45;3.35;;;;;;;;;;6181959;23;20168;-82
2022/02/21 06:53:07;;;;;;;12.10;3.17;;;;;;;;;;6182822;23;20486;-78
2022/02/21 06:55:34;;;;;;;9.15;4.47;;;;;;;;;;6182710;23;20196;-80
2022/02/21 06:58:03;;;;;;;11.10;2.95;;;;;;;;;;6182459;23;20177;-79
2022/02/21 07:00:30;;;;;;;12.82;3.42;;;;;;;;;;6179979;23;20174;-80
2022/02/21 07:02:57;;;;;;;5.57;2.70;;;;;;;;;;6180351;23;20178;-79
2022/02/21 07:05:24;;;;;;;9.25;3.55;;;;;;;;;;6178571;23;20739;-79
2022/02/21 07:07:51;;;;;;;9.20;3.00;;;;;;;;;;6180427;23;20174;-80
2022/02/21 07:10:18;;;;;;;11.20;2.67;;;;;;;;;;6180649;23;20176;-81
2022/02/21 07:12:46;;;;;;;12.43;3.33;;;;;;;;;;6179979;23;20250;-79
2022/02/21 07:15:15;;;;;;;8.88;3.25;;;;;;;;;;6180485;23;20183;-78
2022/02/21 07:17:42;;;;;;;8.05;2.83;;;;;;;;;;6179981;23;20203;-79
2022/02/21 07:20:12;;;;;;;15.52;3.60;;;;;;;;;;6178252;23;20176;-79
2022/02/21 07:22:40;;;;;;;9.43;3.35;;;;;;;;;;6177613;23;20172;-79
2022/02/21 07:25:08;;;;;;;13.35;4.65;;;;;;;;;;6179946;23;20195;-78
2022/02/21 07:27:41;;;;;;;14.45;3.85;;;;;;;;;;6181318;23;20167;-79
2022/02/21 07:30:09;;;;;;;10.93;4.80;;;;;;;;;;6181487;23;20635;-79
2022/02/21 07:32:37;;;;;;;7.85;3.42;;;;;;;;;;6183354;23;20193;-81
2022/02/21 07:35:05;;;;;;;7.05;3.03;;;;;;;;;;6179714;23;20194;-80
2022/02/21 07:37:32;;;;;;;11.23;3.22;;;;;;;;;;6176336;23;20447;-81
2022/02/21 07:39:59;;;;;;;9.38;2.95;;;;;;;;;;6175578;23;20494;-77
2022/02/21 07:42:26;;;;;;;9.45;2.95;;;;;;;;;;6180582;23;20175;-80
2022/02/21 07:44:53;;;;;;;9.15;3.80;;;;;;;;;;6181282;23;20663;-81
2022/02/21 07:47:20;;;;;;;13.00;3.95;;;;;;;;;;6179692;23;20178;-78
2022/02/21 07:49:49;;;;;;;11.35;3.83;;;;;;;;;;6181966;23;20171;-77
2022/02/21 07:52:16;;;;;;;11.52;2.78;;;;;;;;;;6182939;23;20548;-81
2022/02/21 07:54:45;;;;;;;7.35;2.90;;;;;;;;;;6181003;23;20188;-78
2022/02/21 07:57:15;;;;;;;9.63;2.97;;;;;;;;;;6178535;23;20206;-82
2022/02/21 07:59:43;;;;;;;9.95;2.60;;;;;;;;;;6181643;23;20167;-82
2022/02/21 08:02:10;;;;;;;10.23;3.03;;;;;;;;;;6180646;23;20171;-81
2022/02/21 08:04:37;;;;;;;5.93;2.50;;;;;;;;;;6181612;23;20504;-80
2022/02/21 08:07:06;;;;;;;7.85;2.55;;;;;;;;;;6182315;23;20177;-82
2022/02/21 08:09:34;;;;;;;5.80;2.60;;;;;;;;;;6178260;23;20178;-79
2022/02/21 08:12:04;;;;;;;6.03;3.22;;;;;;;;;;6180414;23;20226;-80
2022/02/21 08:14:32;;;;;;;7.22;3.00;;;;;;;;;;6178982;23;20572;-78
2022/02/21 08:16:59;;;;;;;9.80;2.65;;;;;;;;;;6179836;23;20195;-81
2022/02/21 08:19:26;;;;;;;8.77;3.00;;;;;;;;;;6180238;23;20687;-78
2022/02/21 08:21:53;;;;;;;7.95;2.65;;;;;;;;;;6181324;23;20178;-82
2022/02/21 08:24:22;;;;;;;8.60;2.70;;;;;;;;;;6180653;23;20193;-80
2022/02/21 08:26:49;;;;;;;7.82;2.55;;;;;;;;;;6183384;23;20489;-80
2022/02/21 08:29:16;;;;;;;5.20;2.22;;;;;;;;;;6180069;23;20178;-79
2022/02/21 08:31:46;;;;;;;5.68;2.35;;;;;;;;;;6179863;23;20489;-79
2022/02/21 08:34:15;;;;;;;4.90;2.28;;;;;;;;;;6181445;23;20191;-83
2022/02/21 08:36:42;;;;;;;5.63;1.90;;;;;;;;;;6181269;23;20210;-80
2022/02/21 08:39:10;;;;;;;10.13;2.65;;;;;;;;;;6179341;23;20632;-80
2022/02/21 08:41:38;;;;;;;5.35;2.00;;;;;;;;;;6180540;23;20275;-80
2022/02/21 08:44:06;;;;;;;6.25;2.55;;;;;;;;;;6181025;23;20174;-80
2022/02/21 08:46:33;;;;;;;5.43;2.08;;;;;;;;;;6180439;23;20254;-80
2022/02/21 08:49:02;;;;;;;4.78;1.77;;;;;;;;;;6180879;23;20640;-79
2022/02/21 08:51:29;;;;;;;5.60;2.60;;;;;;;;;;6181744;23;20187;-83
2022/02/21 08:53:56;;;;;;;11.27;2.47;;;;;;;;;;6178145;23;20171;-79
2022/02/21 08:56:26;;;;;;;7.80;2.85;;;;;;;;;;6183198;23;20222;-79
2022/02/21 08:58:54;;;;;;;5.45;1.98;;;;;;;;;;6183405;23;20198;-78
2022/02/21 09:01:22;;;;;;;4.97;2.05;;;;;;;;;;6183896;23;20199;-82
2022/02/21 09:03:49;;;;;;;6.65;2.15;;;;;;;;;;6178943;23;20175;-82
2022/02/21 09:06:16;;;;;;;7.35;2.38;;;;;;;;;;6179753;23;20267;-80
2022/02/21 09:08:43;;;;;;;3.83;1.95;;;;;;;;;;6180949;23;20167;-78
2022/02/21 09:11:11;;;;;;;8.45;2.40;;;;;;;;;;6181004;23;20181;-78
2022/02/21 09:13:38;;;;;;;5.70;2.53;;;;;;;;;;6178979;23;20195;-78
2022/02/21 09:16:07;;;;;;;6.50;2.78;;;;;;;;;;6180624;23;20202;-79
2022/02/21 09:18:34;;;;;;;7.05;2.72;;;;;;;;;;6183517;23;20174;-79
2022/02/21 09:21:01;;;;;;;6.05;3.28;;;;;;;;;;6183229;23;20175;-78
2022/02/21 09:23:28;;;;;;;8.90;3.33;;;;;;;;;;6183050;23;20526;-81
2022/02/21 09:25:56;;;;;;;8.75;2.17;;;;;;;;;;6179239;23;20215;-80
2022/02/21 09:28:23;;;;;;;4.75;2.00;;;;;;;;;;6179361;23;20168;-78
2022/02/21 09:30:55;;;;;;;6.05;2.10;;;;;;;;;;6180535;23;20171;-80
2022/02/21 09:33:24;;;;;;;5.55;1.95;;;;;;;;;;6178469;23;20195;-78
2022/02/21 09:35:51;;;;;;;6.57;1.70;;;;;;;;;;6179516;23;20267;-78
2022/02/21 09:38:19;;;;;;;3.55;1.90;;;;;;;;;;6181314;23;20520;-79
2022/02/21 09:40:50;;;;;;;7.43;2.10;;;;;;;;;;6182064;23;20258;-80
2022/02/21 09:43:19;;;;;;;4.03;1.73;;;;;;;;;;6182546;23;20206;-79
2022/02/21 09:45:47;;;;;;;6.72;2.53;;;;;;;;;;6176614;23;20191;-80
2022/02/21 09:48:14;;;;;;;6.15;1.95;;;;;;;;;;6174672;23;20195;-81
2022/02/21 09:50:45;;;;;;;6.85;2.83;;;;;;;;;;6176088;23;20254;-80
2022/02/21 09:53:12;;;;;;;7.80;2.90;;;;;;;;;;6175014;23;20179;-79
2022/02/21 09:55:42;;;;;;;6.67;2.40;;;;;;;;;;6175735;23;20422;-81
2022/02/21 09:58:10;;;;;;;3.90;1.80;;;;;;;;;;6175157;23;20482;-80
2022/02/21 10:00:49;;;;;;;7.00;2.47;;;;;;;;;;6176851;23;20417;-79
2022/02/21 10:03:45;;;;;;;4.93;2.20;;;;;;;;;;6177787;23;20518;-81
2022/02/21 10:06:34;;;;;;;8.37;2.50;;;;;;;;;;6173731;23;20446;-81
2022/02/21 10:09:25;;;;;;;;;;;;;;;;;;;;;
2022/02/21 10:11:58;;;;;;;7.33;1.97;;;;;;;;;;6175714;23;20470;-77
2022/02/21 10:14:36;;;;;;;5.53;2.13;;;;;;;;;;6174005;23;20434;-82
2022/02/21 10:17:13;;;;;;;7.90;2.57;;;;;;;;;;6176665;23;20992;-83
2022/02/21 10:19:42;;;;;;;9.17;2.17;;;;;;;;;;6177076;23;20409;-82
2022/02/21 10:22:14;;;;;;;8.07;2.43;;;;;;;;;;6175247;23;20410;-78
2022/02/21 10:24:49;;;;;;;7.47;2.80;;;;;;;;;;6173258;23;20757;-79
2022/02/21 10:27:16;;;;;;;9.07;3.40;;;;;;;;;;6175708;23;20410;-78
2022/02/21 10:29:47;;;;;;;6.93;2.37;;;;;;;;;;6173751;23;20897;-79
2022/02/21 10:32:18;;;;;;;15.33;2.60;;;;;;;;;;6177066;23;20403;-78
2022/02/21 10:34:45;;;;;;;9.00;2.57;;;;;;;;;;6173082;23;20431;-80
2022/02/21 10:37:14;;;;;;;7.70;2.67;;;;;;;;;;6174742;23;20446;-78
2022/02/21 10:39:43;;;;;;;7.53;3.03;;;;;;;;;;6174731;23;20433;-82
2022/02/21 10:42:13;;;;;;;8.33;3.03;;;;;;;;;;6175897;23;20527;-79
2022/02/21 10:44:41;;;;;;;8.77;3.17;;;;;;;;;;6174061;23;20759;-80
2022/02/21 10:47:10;;;;;;;8.90;3.00;;;;;;;;;;6174332;23;20502;-81
2022/02/21 10:49:39;;;;;;;7.77;3.40;;;;;;;;;;6175102;23;20724;-78
2022/02/21 10:52:08;;;;;;;7.73;3.20;;;;;;;;;;6174711;23;20406;-78
2022/02/21 10:54:39;;;;;;;10.67;5.73;;;;;;;;;;6173867;23;20784;-78
2022/02/21 10:57:10;;;;;;;10.20;3.80;;;;;;;;;;6173894;23;20442;-79
2022/02/21 10:59:37;;;;;;;11.10;3.70;;;;;;;;;;6177848;23;20399;-81
2022/02/21 11:02:06;;;;;;;8.32;3.30;;;;;;;;;;6180816;23;20407;-80
2022/02/21 11:04:33;;;;;;;11.98;4.55;;;;;;;;;;6181271;23;20187;-80
2022/02/21 11:07:04;;;;;;;7.03;4.07;;;;;;;;;;6179393;23;20739;-82
2022/02/21 11:09:33;;;;;;;7.25;3.97;;;;;;;;;;6182427;23;20179;-83
2022/02/21 11:12:09;;;;;;;9.38;2.88;;;;;;;;;;6182209;23;20202;-80
2022/02/21 11:14:40;;;;;;;12.40;3.88;;;;;;;;;;6179216;23;20206;-79
2022/02/21 11:17:10;;;;;;;9.00;4.72;;;;;;;;;;6181009;23;20203;-81
2022/02/21 11:19:40;;;;;;;10.27;3.00;;;;;;;;;;6180526;23;21069;-84
2022/02/21 11:24:59;;;;;;;8.07;4.07;;;;;;;;;;6172781;23;20200;-84
2022/02/21 11:27:42;;;;;;;7.47;2.80;;;;;;;;;;6180134;23;20246;-81
2022/02/21 11:30:12;;;;;;;8.10;3.08;;;;;;;;;;6181310;23;20171;-82
2022/02/21 11:32:41;;;;;;;9.23;3.35;;;;;;;;;;6180879;23;20258;-78
2022/02/21 11:35:13;;;;;;;15.00;4.10;;;;;;;;;;6182813;23;20198;-77
2022/02/21 11:37:40;;;;;;;9.02;2.90;;;;;;;;;;6182144;23;20786;-80
2022/02/21 11:40:08;;;;;;;16.00;5.10;;;;;;;;;;6181143;23;20189;-77
2022/02/21 11:42:36;;;;;;;9.90;3.15;;;;;;;;;;6180779;23;20171;-78
2022/02/21 11:45:05;;;;;;;5.97;2.45;;;;;;;;;;6180330;23;20279;-80
2022/02/21 11:47:34;;;;;;;8.15;2.55;;;;;;;;;;6181633;23;20485;-80
2022/02/21 11:50:01;;;;;;;5.40;2.78;;;;;;;;;;6182005;23;20229;-76
2022/02/21 11:52:29;;;;;;;8.00;2.35;;;;;;;;;;6181625;23;20175;-76
2022/02/21 11:54:57;;;;;;;5.30;2.30;;;;;;;;;;6178387;23;20191;-77
2022/02/21 11:57:29;;;;;;;7.53;1.70;;;;;;;;;;6181350;23;20636;-81
2022/02/21 11:59:56;;;;;;;5.95;1.85;;;;;;;;;;6180009;23;20245;-78
2022/02/21 12:02:23;;;;;;;5.35;2.33;;;;;;;;;;6182043;23;20225;-83
2022/02/21 12:04:53;;;;;;;3.35;1.50;;;;;;;;;;6179610;23;20191;-78
2022/02/21 12:07:24;;;;;;;7.80;1.88;;;;;;;;;;6182962;23;20176;-79
2022/02/21 12:10:06;;;;;;;5.00;3.00;;;;;;;;;;6178154;23;20207;-78
2022/02/21 12:12:49;;;;;;;3.50;1.65;;;;;;;;;;6180535;23;20175;-76
2022/02/21 12:15:16;;;;;;;6.32;2.00;;;;;;;;;;6182929;23;20506;-79
2022/02/21 12:17:44;;;;;;;7.03;2.30;;;;;;;;;;6182315;23;20199;-77
2022/02/21 12:20:26;;;;;;;3.70;2.10;;;;;;;;;;6182208;23;20215;-78
2022/02/21 12:26:04;;;;;;;4.50;1.70;;;;;;;;;;5102202;27;20547;-79
2022/02/21 12:28:33;;;;;;;5.30;1.90;;;;;;;;;;5088943;28;20208;-78
2022/02/21 12:31:00;;;;;;;2.25;1.50;;;;;;;;;;5074564;28;20201;-77
2022/02/21 12:33:28;;;;;;;6.00;1.98;;;;;;;;;;5081467;28;20660;-80
2022/02/21 12:35:57;;;;;;;5.05;1.60;;;;;;;;;;5077312;28;20224;-78
2022/02/21 12:38:25;;;;;;;5.15;1.92;;;;;;;;;;5084389;28;20251;-78
2022/02/21 12:40:54;;;;;;;6.30;2.72;;;;;;;;;;5073816;28;20204;-79
2022/02/21 12:43:22;;;;;;;6.07;2.35;;;;;;;;;;5069889;28;20563;-77
2022/02/21 12:45:50;;;;;;;5.05;2.33;;;;;;;;;;5065111;28;20222;-80
2022/02/21 12:48:17;;;;;;;5.68;1.90;;;;;;;;;;5069547;28;20192;-81
2022/02/21 12:50:44;;;;;;;12.57;3.95;;;;;;;;;;5077439;28;20217;-81
2022/02/21 12:53:12;;;;;;;6.15;2.35;;;;;;;;;;5081423;28;20588;-78
2022/02/21 12:55:47;;;;;;;6.68;1.85;;;;;;;;;;5079109;28;20209;-78
2022/02/21 12:58:15;;;;;;;4.50;2.03;;;;;;;;;;5068589;28;20197;-82
2022/02/21 13:00:43;;;;;;;4.93;2.10;;;;;;;;;;5063963;28;20280;-81
2022/02/21 13:03:22;;;;;;;5.10;2.53;;;;;;;;;;5064533;28;20564;-79
2022/02/21 13:05:57;;;;;;;7.05;2.03;;;;;;;;;;5064953;28;20690;-80
2022/02/21 13:08:35;;;;;;;3.35;1.58;;;;;;;;;;5065896;28;20825;-84
2022/02/21 13:11:02;;;;;;;3.92;2.17;;;;;;;;;;5074368;28;20674;-82
2022/02/21 13:13:29;;;;;;;4.22;2.20;;;;;;;;;;5080148;28;20198;-82
2022/02/21 13:15:56;;;;;;;5.93;2.42;;;;;;;;;;5080940;28;20304;-82
2022/02/21 13:18:25;;;;;;;4.82;2.13;;;;;;;;;;5077805;28;20214;-84
2022/02/21 13:20:56;;;;;;;8.48;2.08;;;;;;;;;;5064486;28;20193;-81
2022/02/21 13:23:23;;;;;;;4.18;2.10;;;;;;;;;;5085681;28;20197;-80
2022/02/21 13:25:50;;;;;;;10.35;2.40;;;;;;;;;;5083804;28;20225;-79
2022/02/21 13:28:17;;;;;;;6.50;2.30;;;;;;;;;;5080704;28;20190;-80
2022/02/21 13:30:45;;;;;;;5.47;2.70;;;;;;;;;;5079694;28;20229;-79
2022/02/21 13:33:12;;;;;;;5.40;2.20;;;;;;;;;;5078603;28;20190;-79
2022/02/21 13:35:42;;;;;;;7.82;3.17;;;;;;;;;;5058745;28;20221;-80
2022/02/21 13:38:11;;;;;;;5.00;2.08;;;;;;;;;;5059720;28;20216;-82
2022/02/21 13:40:40;;;;;;;10.43;2.95;;;;;;;;;;5069117;28;20199;-85
2022/02/21 13:43:09;;;;;;;5.80;2.90;;;;;;;;;;5053217;28;20285;-81
2022/02/21 13:45:37;;;;;;;7.13;2.10;;;;;;;;;;5054869;28;20221;-79
2022/02/21 13:48:06;;;;;;;7.13;2.50;;;;;;;;;;5065320;28;20197;-78
2022/02/21 13:50:35;;;;;;;10.57;2.60;;;;;;;;;;5068506;28;20190;-80
2022/02/21 13:53:04;;;;;;;8.50;2.80;;;;;;;;;;5071378;28;20705;-80
2022/02/21 13:55:34;;;;;;;9.65;2.75;;;;;;;;;;5071599;28;20222;-80
2022/02/21 13:58:02;;;;;;;12.52;4.57;;;;;;;;;;5069754;28;20186;-78
2022/02/21 14:00:37;;;;;;;7.57;3.45;;;;;;;;;;5071289;28;20247;-80
2022/02/21 14:03:04;;;;;;;12.90;3.63;;;;;;;;;;5055574;28;20563;-79
2022/02/21 14:05:31;;;;;;;9.40;3.30;;;;;;;;;;5063981;28;20214;-79
2022/02/21 14:07:59;;;;;;;15.02;3.60;;;;;;;;;;5066860;28;20552;-79
2022/02/21 14:10:27;;;;;;;10.32;3.33;;;;;;;;;;5070264;28;20201;-78
2022/02/21 14:12:56;;;;;;;12.48;3.53;;;;;;;;;;5070534;28;20190;-78
2022/02/21 14:15:23;;;;;;;7.78;2.75;;;;;;;;;;5070017;28;20222;-80
2022/02/21 14:17:50;;;;;;;9.73;3.97;;;;;;;;;;5064703;28;20191;-80
2022/02/21 14:20:17;;;;;;;11.43;4.45;;;;;;;;;;5050556;28;20651;-79
2022/02/21 14:22:44;;;;;;;14.13;3.17;;;;;;;;;;5057021;28;20198;-78
2022/02/21 14:25:12;;;;;;;8.82;3.30;;;;;;;;;;5065049;28;20225;-79
2022/02/21 14:27:41;;;;;;;6.88;3.45;;;;;;;;;;5067558;28;20629;-78
2022/02/21 14:30:08;;;;;;;10.30;3.72;;;;;;;;;;5070259;28;20198;-77
2022/02/21 14:32:35;;;;;;;11.10;3.00;;;;;;;;;;5068840;28;20202;-77
2022/02/21 14:35:03;;;;;;;8.23;2.75;;;;;;;;;;5056390;28;20691;-78
2022/02/21 14:37:30;;;;;;;14.63;4.00;;;;;;;;;;5051108;28;22178;-78
2022/02/21 14:39:57;;;;;;;12.77;3.15;;;;;;;;;;5053809;28;20628;-79
2022/02/21 14:42:24;;;;;;;9.95;3.25;;;;;;;;;;5051317;28;20198;-78
2022/02/21 14:44:53;;;;;;;12.45;3.15;;;;;;;;;;5057189;28;20222;-78
2022/02/21 14:47:20;;;;;;;9.65;3.00;;;;;;;;;;5064713;28;20196;-79
2022/02/21 14:49:47;;;;;;;12.18;4.03;;;;;;;;;;5066847;28;20285;-78
2022/02/21 14:52:14;;;;;;;7.18;3.15;;;;;;;;;;5068149;28;20221;-77
2022/02/21 14:54:41;;;;;;;7.97;3.22;;;;;;;;;;5070311;28;20744;-78